createdAt,value
2022-10-24T00:00:44.914Z,77.56
2022-10-24T00:03:51.466Z,77.69
2022-10-24T00:06:56.996Z,77.76
2022-10-24T00:10:02.546Z,77.63
2022-10-24T00:13:08.301Z,77.55
2022-10-24T00:16:14.709Z,77.91
2022-10-24T00:19:20.423Z,78.28
2022-10-24T00:22:26.077Z,78.35
2022-10-24T00:25:31.522Z,78.24
2022-10-24T00:28:38.436Z,78.14
2022-10-24T00:31:44.205Z,78.17
2022-10-24T00:34:49.706Z,78.08
2022-10-24T00:37:55.461Z,78.21
2022-10-24T00:41:01.009Z,78.31
2022-10-24T00:44:19.974Z,78.26
2022-10-24T00:47:28.235Z,78.30
2022-10-24T00:50:34.249Z,78.24
2022-10-24T00:53:45.451Z,78.31
2022-10-24T00:56:58.044Z,78.28
2022-10-24T01:00:08.297Z,78.40
2022-10-24T01:03:14.861Z,78.56
2022-10-24T01:06:54.321Z,78.65
2022-10-24T01:10:22.488Z,78.72
2022-10-24T01:13:36.703Z,78.88
2022-10-24T01:16:48.864Z,78.85
2022-10-24T01:20:20.296Z,78.78
2022-10-24T01:24:01.095Z,78.86
2022-10-24T01:27:32.001Z,79.24
2022-10-24T01:30:42.708Z,79.19
2022-10-24T01:33:54.937Z,79.26
2022-10-24T01:37:05.887Z,79.31
2022-10-24T01:40:16.145Z,79.22
2022-10-24T01:43:26.977Z,79.35
2022-10-24T01:46:36.974Z,79.31
2022-10-24T01:49:46.220Z,79.37
2022-10-24T01:52:55.547Z,79.34
2022-10-24T01:56:01.937Z,79.46
2022-10-24T01:59:07.518Z,79.65
2022-10-24T02:02:16.906Z,79.68
2022-10-24T02:05:27.152Z,79.90
2022-10-24T02:08:38.656Z,79.82
2022-10-24T02:11:46.807Z,79.83
2022-10-24T02:14:56.819Z,80.01
2022-10-24T02:18:03.113Z,80.03
2022-10-24T02:21:13.806Z,79.98
2022-10-24T02:24:24.545Z,80.07
2022-10-24T02:27:34.549Z,80.17
2022-10-24T02:30:44.910Z,80.18
2022-10-24T02:33:52.848Z,80.19
2022-10-24T02:37:00.290Z,80.14
2022-10-24T02:40:10.628Z,80.29
2022-10-24T02:43:18.612Z,80.38
2022-10-24T02:46:25.439Z,80.35
2022-10-24T02:49:31.210Z,80.47
2022-10-24T02:52:38.381Z,80.41
2022-10-24T02:55:44.086Z,80.51
2022-10-24T02:58:49.533Z,80.63
2022-10-24T03:01:55.270Z,80.50
2022-10-24T03:05:01.410Z,80.68
2022-10-24T03:08:07.969Z,80.84
2022-10-24T03:11:13.676Z,80.93
2022-10-24T03:14:19.424Z,80.80
2022-10-24T03:17:24.976Z,80.85
2022-10-24T03:20:30.590Z,81.04
2022-10-24T03:23:36.077Z,81.04
2022-10-24T03:26:41.496Z,81.13
2022-10-24T03:29:46.972Z,81.32
2022-10-24T03:32:52.462Z,81.28
2022-10-24T03:35:58.172Z,81.21
2022-10-24T03:39:04.181Z,81.29
2022-10-24T03:42:09.749Z,81.31
2022-10-24T03:45:15.948Z,81.28
2022-10-24T03:48:19.843Z,81.30
2022-10-24T03:51:25.308Z,81.28
2022-10-24T03:54:31.112Z,81.36
2022-10-24T03:57:36.610Z,81.78
2022-10-24T04:00:43.370Z,81.92
2022-10-24T04:03:48.940Z,81.83
2022-10-24T04:06:54.392Z,81.89
2022-10-24T04:09:59.936Z,81.89
2022-10-24T04:13:05.352Z,82.02
2022-10-24T04:16:11.792Z,81.97
2022-10-24T04:19:18.545Z,82.05
2022-10-24T04:22:24.080Z,81.97
2022-10-24T04:25:30.183Z,81.99
2022-10-24T04:28:35.998Z,82.19
2022-10-24T04:31:41.750Z,82.10
2022-10-24T04:34:47.221Z,82.24
2022-10-24T04:37:53.097Z,82.36
2022-10-24T04:40:58.609Z,82.42
2022-10-24T04:44:04.152Z,82.43
2022-10-24T04:47:09.651Z,82.33
2022-10-24T04:50:15.246Z,82.51
2022-10-24T04:53:20.850Z,82.55
2022-10-24T04:56:27.078Z,82.65
2022-10-24T04:59:30.972Z,82.55
2022-10-24T05:02:36.602Z,82.67
2022-10-24T05:05:42.344Z,82.79
2022-10-24T05:08:47.834Z,82.90
2022-10-24T05:11:55.019Z,82.94
2022-10-24T05:15:00.568Z,82.91
2022-10-24T05:18:06.906Z,83.01
2022-10-24T05:21:10.847Z,83.04
2022-10-24T05:24:16.603Z,83.10
2022-10-24T05:27:24.872Z,83.26
2022-10-24T05:30:30.467Z,83.15
2022-10-24T05:33:35.922Z,83.20
2022-10-24T05:36:41.412Z,83.20
2022-10-24T05:39:47.013Z,83.29
2022-10-24T05:42:53.175Z,83.52
2022-10-24T05:45:58.727Z,83.31
2022-10-24T05:49:04.275Z,83.38
2022-10-24T05:52:09.926Z,83.45
2022-10-24T05:55:17.876Z,83.57
2022-10-24T05:58:25.019Z,83.60
2022-10-24T06:01:30.601Z,83.59
2022-10-24T06:04:36.125Z,83.66
2022-10-24T06:07:43.286Z,83.70
2022-10-24T06:10:50.781Z,83.88
2022-10-24T06:13:56.258Z,83.99
2022-10-24T06:17:01.774Z,83.99
2022-10-24T06:20:08.808Z,84.11
2022-10-24T06:23:14.331Z,84.11
2022-10-24T06:26:23.118Z,84.23
2022-10-24T06:29:29.831Z,84.41
2022-10-24T06:32:35.890Z,84.42
2022-10-24T06:35:41.954Z,84.48
2022-10-24T06:38:47.511Z,84.57
2022-10-24T06:41:53.053Z,84.60
2022-10-24T06:48:10.740Z,84.81
2022-10-24T06:51:19.123Z,85.04
2022-10-24T06:54:26.513Z,85.03
2022-10-24T06:57:35.127Z,85.14
2022-10-24T07:00:41.711Z,85.28
2022-10-24T07:03:47.976Z,85.12
2022-10-24T07:06:51.990Z,85.32
2022-10-24T07:09:58.725Z,85.70
2022-10-24T07:13:04.229Z,85.65
2022-10-24T07:16:11.034Z,85.37
2022-10-24T07:19:16.451Z,85.45
2022-10-24T07:22:22.028Z,85.59
2022-10-24T07:25:27.437Z,85.60
2022-10-24T07:28:33.236Z,85.90
2022-10-24T07:31:38.968Z,86.02
2022-10-24T07:34:44.699Z,86.08
2022-10-24T07:37:50.251Z,86.28
2022-10-24T07:40:55.798Z,86.44
2022-10-24T07:44:02.612Z,86.63
2022-10-24T07:47:10.101Z,86.86
2022-10-24T07:50:17.294Z,86.70
2022-10-24T07:53:22.706Z,86.73
2022-10-24T07:56:28.306Z,86.76
2022-10-24T07:59:41.764Z,86.52
2022-10-24T08:05:57.194Z,86.31
2022-10-24T08:09:03.052Z,85.99
2022-10-24T08:12:09.065Z,85.75
2022-10-24T08:15:14.864Z,85.86
2022-10-24T08:18:20.413Z,85.74
2022-10-24T08:21:26.929Z,85.91
2022-10-24T08:24:32.433Z,86.12
2022-10-24T08:27:38.349Z,86.07
2022-10-24T08:30:43.882Z,86.13
2022-10-24T08:33:52.359Z,86.19
2022-10-24T08:36:57.806Z,85.83
2022-10-24T08:40:05.403Z,85.82
2022-10-24T08:43:13.019Z,85.79
2022-10-24T08:46:36.369Z,85.80
2022-10-24T08:49:50.259Z,85.69
2022-10-24T08:53:01.816Z,85.46
2022-10-24T08:56:11.373Z,85.58
2022-10-24T08:59:16.896Z,85.44
2022-10-24T09:02:26.665Z,85.31
2022-10-24T09:05:43.456Z,85.35
2022-10-24T09:08:53.921Z,85.21
2022-10-24T09:12:03.200Z,84.97
2022-10-24T09:15:21.216Z,84.64
2022-10-24T09:18:32.317Z,84.67
2022-10-24T09:21:38.650Z,84.30
2022-10-24T09:24:48.658Z,83.98
2022-10-24T09:27:54.217Z,83.92
2022-10-24T09:30:59.699Z,83.74
2022-10-24T09:34:07.229Z,83.53
2022-10-24T09:37:35.129Z,83.37
2022-10-24T09:40:53.722Z,83.15
2022-10-24T09:44:01.405Z,83.05
2022-10-24T09:47:22.845Z,82.79
2022-10-24T09:50:29.565Z,82.56
2022-10-24T09:53:37.610Z,82.32
2022-10-24T09:56:44.611Z,82.16
2022-10-24T09:59:59.536Z,81.90
2022-10-24T10:03:07.722Z,81.59
2022-10-24T10:06:20.171Z,81.16
2022-10-24T10:09:31.510Z,80.81
2022-10-24T10:12:40.285Z,80.50
2022-10-24T10:15:50.425Z,80.16
2022-10-24T10:19:04.964Z,79.97
2022-10-24T10:22:25.880Z,79.92
2022-10-24T10:25:33.466Z,79.92
2022-10-24T10:28:48.338Z,79.62
2022-10-24T10:31:59.256Z,79.43
2022-10-24T10:35:14.382Z,79.07
2022-10-24T10:38:37.745Z,78.67
2022-10-24T10:41:49.575Z,78.47
2022-10-24T10:45:09.980Z,78.45
2022-10-24T10:48:33.083Z,78.41
2022-10-24T10:51:45.631Z,78.02
2022-10-24T10:55:09.110Z,78.04
2022-10-24T10:58:27.048Z,77.90
2022-10-24T11:01:46.502Z,77.76
2022-10-24T11:04:59.548Z,77.79
2022-10-24T11:08:18.546Z,77.59
2022-10-24T11:11:29.236Z,77.26
2022-10-24T11:14:38.060Z,77.08
2022-10-24T11:17:47.514Z,76.91
2022-10-24T11:20:58.481Z,76.59
2022-10-24T11:24:11.112Z,76.63
2022-10-24T11:27:26.621Z,76.31
2022-10-24T11:30:43.621Z,76.33
2022-10-24T11:33:56.699Z,76.02
2022-10-24T11:37:07.492Z,75.99
2022-10-24T11:40:16.265Z,75.96
2022-10-24T11:43:27.136Z,75.88
2022-10-24T11:46:37.700Z,75.93
2022-10-24T11:49:48.984Z,76.20
2022-10-24T11:52:56.888Z,76.42
2022-10-24T11:56:08.327Z,76.32
2022-10-24T11:59:21.608Z,76.06
2022-10-24T12:03:00.943Z,75.96
2022-10-24T12:06:32.771Z,75.99
2022-10-24T12:10:07.990Z,75.71
2022-10-24T12:13:29.190Z,75.69
2022-10-24T12:16:48.029Z,75.59
2022-10-24T12:19:54.909Z,75.42
2022-10-24T12:23:02.536Z,75.42
2022-10-24T12:26:18.593Z,75.20
2022-10-24T12:29:28.090Z,75.19
2022-10-24T12:32:42.423Z,75.18
2022-10-24T12:35:52.962Z,75.05
2022-10-24T12:39:09.541Z,74.97
2022-10-24T12:42:39.871Z,74.91
2022-10-24T12:45:45.480Z,75.09
2022-10-24T12:49:20.600Z,74.79
2022-10-24T12:53:07.277Z,74.75
2022-10-24T12:56:22.534Z,74.67
2022-10-24T12:59:31.453Z,74.36
2022-10-24T13:02:53.762Z,74.46
2022-10-24T13:06:07.774Z,74.30
2022-10-24T13:09:26.378Z,74.39
2022-10-24T13:12:53.113Z,74.49
2022-10-24T13:16:04.321Z,74.51
2022-10-24T13:19:18.761Z,74.52
2022-10-24T13:22:34.810Z,74.31
2022-10-24T13:25:41.926Z,74.27
2022-10-24T13:28:47.653Z,73.96
2022-10-24T13:31:55.014Z,73.95
2022-10-24T13:35:02.851Z,73.88
2022-10-24T13:38:10.842Z,73.86
2022-10-24T13:41:24.833Z,73.74
2022-10-24T13:44:35.468Z,73.59
2022-10-24T13:47:46.365Z,73.44
2022-10-24T13:51:02.131Z,73.33
2022-10-24T13:54:15.062Z,73.33
2022-10-24T13:57:33.892Z,73.34
2022-10-24T14:00:41.927Z,73.35
2022-10-24T14:03:48.599Z,73.10
2022-10-24T14:06:54.378Z,72.91
2022-10-24T14:10:04.719Z,72.95
2022-10-24T14:13:17.654Z,72.83
2022-10-24T14:16:29.173Z,72.75
2022-10-24T14:19:38.380Z,72.64
2022-10-24T14:22:44.724Z,72.37
2022-10-24T14:25:58.268Z,72.13
2022-10-24T14:29:03.961Z,72.12
2022-10-24T14:32:15.366Z,71.79
2022-10-24T14:35:20.958Z,71.93
2022-10-24T14:38:27.548Z,71.77
2022-10-24T14:41:35.773Z,71.73
2022-10-24T14:44:44.105Z,71.61
2022-10-24T14:47:54.944Z,71.53
2022-10-24T14:51:09.403Z,71.43
2022-10-24T14:54:21.292Z,71.34
2022-10-24T14:57:27.905Z,71.32
2022-10-24T15:00:41.115Z,71.28
2022-10-24T15:03:55.977Z,71.57
2022-10-24T15:07:16.371Z,71.33
2022-10-24T15:10:33.990Z,71.43
2022-10-24T15:13:48.138Z,71.33
2022-10-24T15:17:21.459Z,71.37
2022-10-24T15:20:30.164Z,71.42
2022-10-24T15:23:37.799Z,71.40
2022-10-24T15:26:45.596Z,71.52
2022-10-24T15:29:51.012Z,71.74
2022-10-24T15:32:59.514Z,71.80
2022-10-24T15:36:06.235Z,71.75
2022-10-24T15:39:16.941Z,71.76
2022-10-24T15:42:23.710Z,71.90
2022-10-24T15:45:29.817Z,72.00
2022-10-24T15:48:35.367Z,72.12
2022-10-24T15:51:46.022Z,72.13
2022-10-24T15:54:55.376Z,72.11
2022-10-24T15:58:01.245Z,72.18
2022-10-24T16:01:07.069Z,72.35
2022-10-24T16:04:11.615Z,72.27
2022-10-24T16:07:17.169Z,72.36
2022-10-24T16:10:24.501Z,72.53
2022-10-24T16:13:30.643Z,72.53
2022-10-24T16:16:36.073Z,72.54
2022-10-24T16:19:41.616Z,72.82
2022-10-24T16:22:47.070Z,73.07
2022-10-24T16:25:52.815Z,73.05
2022-10-24T16:28:58.204Z,72.90
2022-10-24T16:32:03.710Z,72.81
2022-10-24T16:35:12.481Z,73.01
2022-10-24T16:38:18.360Z,73.04
2022-10-24T16:41:25.790Z,73.24
2022-10-24T16:44:31.847Z,73.39
2022-10-24T16:47:36.008Z,73.31
2022-10-24T16:50:46.417Z,73.48
2022-10-24T16:53:52.694Z,73.57
2022-10-24T16:56:58.356Z,73.64
2022-10-24T17:00:06.165Z,73.54
2022-10-24T17:03:11.800Z,73.81
2022-10-24T17:06:17.350Z,73.84
2022-10-24T17:09:23.017Z,73.92
2022-10-24T17:12:28.556Z,73.98
2022-10-24T17:15:34.052Z,74.03
2022-10-24T17:18:40.042Z,74.13
2022-10-24T17:21:47.999Z,74.26
2022-10-24T17:24:53.719Z,74.47
2022-10-24T17:27:59.767Z,74.52
2022-10-24T17:31:05.885Z,74.49
2022-10-24T17:34:10.108Z,74.71
2022-10-24T17:37:23.541Z,74.65
2022-10-24T17:40:40.421Z,74.83
2022-10-24T17:43:47.056Z,74.96
2022-10-24T17:46:56.027Z,74.93
2022-10-24T17:50:04.022Z,75.17
2022-10-24T17:53:11.976Z,75.12
2022-10-24T17:56:19.570Z,75.23
2022-10-24T17:59:27.569Z,75.40
2022-10-24T18:02:34.412Z,75.41
2022-10-24T18:05:39.898Z,75.50
2022-10-24T18:08:45.613Z,75.60
2022-10-24T18:11:51.060Z,75.64
2022-10-24T18:14:57.532Z,75.50
2022-10-24T18:18:03.008Z,75.69
2022-10-24T18:21:13.694Z,75.78
2022-10-24T18:24:19.161Z,75.70
2022-10-24T18:27:25.089Z,75.94
2022-10-24T18:30:30.983Z,75.95
2022-10-24T18:33:36.563Z,76.33
2022-10-24T18:36:42.060Z,76.40
2022-10-24T18:39:48.344Z,76.33
2022-10-24T18:42:58.843Z,76.49
2022-10-24T18:46:05.539Z,76.59
2022-10-24T18:49:12.241Z,76.48
2022-10-24T18:52:25.528Z,76.45
2022-10-24T18:55:33.157Z,76.80
2022-10-24T18:58:39.124Z,76.86
2022-10-24T19:01:52.016Z,76.98
2022-10-24T19:05:13.632Z,77.00
2022-10-24T19:08:22.110Z,77.29
2022-10-24T19:11:28.111Z,77.33
2022-10-24T19:14:34.195Z,77.38
2022-10-24T19:17:38.188Z,77.38
2022-10-24T19:20:43.962Z,77.48
2022-10-24T19:23:50.670Z,77.67
2022-10-24T19:26:56.165Z,77.82
2022-10-24T19:30:01.572Z,77.91
2022-10-24T19:33:06.964Z,77.98
2022-10-24T19:36:19.012Z,78.22
2022-10-24T19:39:25.981Z,78.18
2022-10-24T19:42:34.700Z,78.10
2022-10-24T19:45:49.903Z,78.14
2022-10-24T19:49:00.612Z,78.25
2022-10-24T19:52:06.308Z,78.20
2022-10-24T19:55:12.074Z,78.21
2022-10-24T19:58:20.156Z,78.35
2022-10-24T20:01:27.509Z,78.31
2022-10-24T20:04:33.479Z,78.41
2022-10-24T20:07:38.876Z,78.47
2022-10-24T20:10:51.502Z,78.60
2022-10-24T20:13:57.240Z,78.55
2022-10-24T20:17:02.744Z,78.77
2022-10-24T20:20:11.329Z,78.70
2022-10-24T20:23:17.120Z,78.80
2022-10-24T20:26:26.009Z,78.87
2022-10-24T20:29:32.518Z,79.03
2022-10-24T20:32:37.933Z,79.16
2022-10-24T20:35:44.457Z,79.07
2022-10-24T20:38:49.916Z,79.16
2022-10-24T20:41:55.532Z,79.21
2022-10-24T20:45:00.990Z,79.22
2022-10-24T20:48:06.920Z,79.43
2022-10-24T20:51:14.543Z,79.43
2022-10-24T20:54:20.952Z,79.35
2022-10-24T20:57:26.459Z,79.51
2022-10-24T21:00:31.984Z,79.73
2022-10-24T21:03:38.193Z,80.07
2022-10-24T21:06:42.084Z,80.03
2022-10-24T21:09:47.530Z,79.98
2022-10-24T21:12:53.824Z,79.91
2022-10-24T21:15:59.569Z,80.08
2022-10-24T21:19:06.316Z,80.16
2022-10-24T21:22:11.776Z,80.01
2022-10-24T21:25:17.553Z,80.46
2022-10-24T21:28:22.959Z,80.49
2022-10-24T21:31:28.528Z,80.33
2022-10-24T21:34:34.848Z,80.51
2022-10-24T21:37:40.678Z,80.73
2022-10-24T21:40:46.121Z,80.80
2022-10-24T21:43:52.146Z,80.89
2022-10-24T21:46:57.709Z,80.90
2022-10-24T21:50:03.155Z,80.88
2022-10-24T21:53:08.705Z,81.04
2022-10-24T21:56:15.812Z,81.01
2022-10-24T21:59:22.618Z,81.15
2022-10-24T22:02:28.171Z,81.18
2022-10-24T22:05:33.724Z,81.24
2022-10-24T22:08:39.144Z,81.11
2022-10-24T22:11:44.865Z,81.08
2022-10-24T22:14:50.317Z,81.13
2022-10-24T22:17:55.658Z,81.12
2022-10-24T22:21:02.371Z,81.28
2022-10-24T22:24:10.377Z,81.45
2022-10-24T22:27:15.997Z,81.53
2022-10-24T22:30:21.470Z,81.74
2022-10-24T22:33:34.164Z,81.61
2022-10-24T22:37:09.024Z,81.60
2022-10-24T22:40:25.003Z,81.77
2022-10-24T22:43:31.715Z,81.79
2022-10-24T22:46:52.070Z,81.86
2022-10-24T22:50:04.504Z,82.10
2022-10-24T22:53:15.306Z,82.23
2022-10-24T22:56:27.155Z,82.23
2022-10-24T22:59:34.314Z,82.29
2022-10-24T23:02:46.120Z,82.22
2022-10-24T23:05:59.973Z,82.31
2022-10-24T23:09:05.625Z,82.50
2022-10-24T23:12:17.161Z,82.47
2022-10-24T23:15:24.881Z,82.57
2022-10-24T23:18:31.637Z,82.52
2022-10-24T23:21:44.616Z,82.58
2022-10-24T23:24:51.553Z,82.54
2022-10-24T23:28:03.942Z,82.50
2022-10-24T23:31:10.769Z,82.77
2022-10-24T23:34:17.662Z,82.65
2022-10-24T23:37:32.711Z,82.66
2022-10-24T23:40:41.732Z,82.84
2022-10-24T23:43:48.558Z,82.89
2022-10-24T23:47:00.609Z,82.91
2022-10-24T23:50:11.733Z,83.01
2022-10-24T23:53:41.460Z,83.22
2022-10-24T23:56:48.449Z,83.23
2022-10-24T23:59:53.982Z,83.17
